createdAt,value
2022-10-07T00:00:03.297Z,991.25
2022-10-07T00:01:03.555Z,991.28
2022-10-07T00:02:03.579Z,991.30
2022-10-07T00:03:03.458Z,991.33
2022-10-07T00:04:03.570Z,991.25
2022-10-07T00:05:03.616Z,991.28
2022-10-07T00:06:03.619Z,991.28
2022-10-07T00:07:03.652Z,991.31
2022-10-07T00:08:03.770Z,991.31
2022-10-07T00:09:03.690Z,991.31
2022-10-07T00:10:04.267Z,991.16
2022-10-07T00:11:03.944Z,991.39
2022-10-07T00:12:04.008Z,991.36
2022-10-07T00:13:03.087Z,991.17
2022-10-07T00:14:03.181Z,991.34
2022-10-07T00:15:03.090Z,991.17
2022-10-07T00:16:03.179Z,991.28
2022-10-07T00:17:03.576Z,991.22
2022-10-07T00:18:03.363Z,991.25
2022-10-07T00:19:03.305Z,991.20
2022-10-07T00:20:03.444Z,991.34
2022-10-07T00:21:03.387Z,991.22
2022-10-07T00:22:03.394Z,991.17
2022-10-07T00:23:03.492Z,991.14
2022-10-07T00:24:03.684Z,991.20
2022-10-07T00:25:03.518Z,991.14
2022-10-07T00:26:03.536Z,991.17
2022-10-07T00:27:03.554Z,991.20
2022-10-07T00:28:03.544Z,991.14
2022-10-07T00:29:03.577Z,991.17
2022-10-07T00:30:03.548Z,991.20
2022-10-07T00:31:03.625Z,991.14
2022-10-07T00:32:03.553Z,991.03
2022-10-07T00:33:03.758Z,990.91
2022-10-07T00:34:03.506Z,991.03
2022-10-07T00:35:03.590Z,990.91
2022-10-07T00:36:03.462Z,990.91
2022-10-07T00:37:03.570Z,990.94
2022-10-07T00:38:03.467Z,990.91
2022-10-07T00:39:03.091Z,990.94
2022-10-07T00:40:03.108Z,990.86
2022-10-07T00:41:03.091Z,991.03
2022-10-07T00:42:03.170Z,991.03
2022-10-07T00:43:03.171Z,990.86
2022-10-07T00:44:03.189Z,991.00
2022-10-07T00:45:03.181Z,990.89
2022-10-07T00:46:03.407Z,991.00
2022-10-07T00:47:03.099Z,990.86
2022-10-07T00:48:03.058Z,991.03
2022-10-07T00:49:03.180Z,990.94
2022-10-07T00:50:03.116Z,990.86
2022-10-07T00:51:03.199Z,990.94
2022-10-07T00:52:03.179Z,990.89
2022-10-07T00:53:03.143Z,990.94
2022-10-07T00:54:03.349Z,990.86
2022-10-07T00:55:03.334Z,990.89
2022-10-07T00:56:03.282Z,990.92
2022-10-07T00:57:03.329Z,990.80
2022-10-07T00:58:03.353Z,990.72
2022-10-07T00:59:03.370Z,990.78
2022-10-07T01:00:03.312Z,990.83
2022-10-07T01:01:03.532Z,990.86
2022-10-07T01:02:03.514Z,990.80
2022-10-07T01:03:03.460Z,990.72
2022-10-07T01:04:03.493Z,990.89
2022-10-07T01:05:03.626Z,990.75
2022-10-07T01:06:03.553Z,990.86
2022-10-07T01:07:03.622Z,990.81
2022-10-07T01:08:03.624Z,990.75
2022-10-07T01:09:03.707Z,990.64
2022-10-07T01:10:03.758Z,990.64
2022-10-07T01:11:03.701Z,990.64
2022-10-07T01:12:03.646Z,990.72
2022-10-07T01:13:03.753Z,990.72
2022-10-07T01:14:03.744Z,990.64
2022-10-07T01:15:03.876Z,990.67
2022-10-07T01:16:03.739Z,990.81
2022-10-07T01:17:04.060Z,990.69
2022-10-07T01:18:02.873Z,990.72
2022-10-07T01:19:02.935Z,990.58
2022-10-07T01:20:03.012Z,990.75
2022-10-07T01:21:02.915Z,990.61
2022-10-07T01:22:03.003Z,990.64
2022-10-07T01:23:03.006Z,990.64
2022-10-07T01:24:03.002Z,990.58
2022-10-07T01:25:02.992Z,990.53
2022-10-07T01:26:03.010Z,990.55
2022-10-07T01:27:02.935Z,990.42
2022-10-07T01:28:03.158Z,990.47
2022-10-07T01:29:02.985Z,990.53
2022-10-07T01:30:02.901Z,990.36
2022-10-07T01:31:02.951Z,990.34
2022-10-07T01:32:02.919Z,990.34
2022-10-07T01:33:02.984Z,990.37
2022-10-07T01:34:02.928Z,990.34
2022-10-07T01:35:02.866Z,990.31
2022-10-07T01:36:03.035Z,990.31
2022-10-07T01:37:02.953Z,990.34
2022-10-07T01:38:03.053Z,990.25
2022-10-07T01:39:03.063Z,990.37
2022-10-07T01:40:03.067Z,990.34
2022-10-07T01:41:03.122Z,990.20
2022-10-07T01:42:03.271Z,990.20
2022-10-07T01:43:03.120Z,990.31
2022-10-07T01:44:03.168Z,990.25
2022-10-07T01:45:03.275Z,990.25
2022-10-07T01:46:03.292Z,990.20
2022-10-07T01:47:03.115Z,990.25
2022-10-07T01:48:03.257Z,990.09
2022-10-07T01:49:03.316Z,990.25
2022-10-07T01:50:03.424Z,990.14
2022-10-07T01:51:03.379Z,990.20
2022-10-07T01:52:03.428Z,990.09
2022-10-07T01:53:03.547Z,990.26
2022-10-07T01:54:03.499Z,990.03
2022-10-07T01:55:03.555Z,990.14
2022-10-07T01:56:03.558Z,990.09
2022-10-07T01:57:03.554Z,990.06
2022-10-07T01:58:03.509Z,990.06
2022-10-07T01:59:03.532Z,990.06
2022-10-07T02:00:03.662Z,990.06
2022-10-07T02:01:03.751Z,990.14
2022-10-07T02:02:03.811Z,990.14
2022-10-07T02:03:03.949Z,990.14
2022-10-07T02:04:04.097Z,989.92
2022-10-07T02:05:03.897Z,990.03
2022-10-07T02:06:03.949Z,990.06
2022-10-07T02:07:03.910Z,989.98
2022-10-07T02:08:03.907Z,989.92
2022-10-07T02:09:03.946Z,989.86
2022-10-07T02:10:02.861Z,990.09
2022-10-07T02:11:03.001Z,990.09
2022-10-07T02:12:02.957Z,990.01
2022-10-07T02:13:03.073Z,990.06
2022-10-07T02:14:03.130Z,989.92
2022-10-07T02:15:03.117Z,989.95
2022-10-07T02:16:03.198Z,990.03
2022-10-07T02:17:03.170Z,989.78
2022-10-07T02:18:03.278Z,989.92
2022-10-07T02:19:03.311Z,989.89
2022-10-07T02:20:03.375Z,989.95
2022-10-07T02:21:03.358Z,989.95
2022-10-07T02:22:03.305Z,990.01
2022-10-07T02:23:03.384Z,989.90
2022-10-07T02:24:03.394Z,989.95
2022-10-07T02:25:03.478Z,989.78
2022-10-07T02:26:03.289Z,989.81
2022-10-07T02:27:03.282Z,989.87
2022-10-07T02:28:03.514Z,989.75
2022-10-07T02:29:03.345Z,989.84
2022-10-07T02:30:03.510Z,989.73
2022-10-07T02:31:03.693Z,989.87
2022-10-07T02:32:03.591Z,989.68
2022-10-07T02:33:03.454Z,989.90
2022-10-07T02:34:03.503Z,989.81
2022-10-07T02:35:03.603Z,989.73
2022-10-07T02:36:03.522Z,989.73
2022-10-07T02:37:03.614Z,989.70
2022-10-07T02:38:03.617Z,989.79
2022-10-07T02:39:04.229Z,989.60
2022-10-07T02:40:12.006Z,989.68
2022-10-07T02:41:03.611Z,989.68
2022-10-07T02:42:03.717Z,989.54
2022-10-07T02:43:03.724Z,989.60
2022-10-07T02:44:03.814Z,989.66
2022-10-07T02:45:03.926Z,989.63
2022-10-07T02:46:03.067Z,989.63
2022-10-07T02:47:02.949Z,989.66
2022-10-07T02:48:03.927Z,989.54
2022-10-07T02:49:03.840Z,989.60
2022-10-07T02:50:03.899Z,989.49
2022-10-07T02:51:03.927Z,989.52
2022-10-07T02:52:03.080Z,989.60
2022-10-07T02:53:03.219Z,989.37
2022-10-07T02:54:03.131Z,989.49
2022-10-07T02:55:03.215Z,989.60
2022-10-07T02:56:03.243Z,989.57
2022-10-07T02:57:03.299Z,989.54
2022-10-07T02:58:03.203Z,989.66
2022-10-07T02:59:03.294Z,989.52
2022-10-07T03:00:11.043Z,989.60
2022-10-07T03:01:03.227Z,989.57
2022-10-07T03:02:03.483Z,989.57
2022-10-07T03:03:03.467Z,989.60
2022-10-07T03:04:03.575Z,989.49
2022-10-07T03:05:03.353Z,989.43
2022-10-07T03:06:03.405Z,989.60
2022-10-07T03:07:03.396Z,989.55
2022-10-07T03:08:03.416Z,989.52
2022-10-07T03:09:03.433Z,989.60
2022-10-07T03:10:03.523Z,989.49
2022-10-07T03:11:03.478Z,989.38
2022-10-07T03:12:03.702Z,989.66
2022-10-07T03:13:03.549Z,989.58
2022-10-07T03:14:03.706Z,989.55
2022-10-07T03:15:03.679Z,989.38
2022-10-07T03:16:03.824Z,989.60
2022-10-07T03:17:03.685Z,989.60
2022-10-07T03:18:03.785Z,989.46
2022-10-07T03:19:02.894Z,989.61
2022-10-07T03:20:03.846Z,989.55
2022-10-07T03:21:03.070Z,989.38
2022-10-07T03:22:03.659Z,989.46
2022-10-07T03:23:03.875Z,989.55
2022-10-07T03:24:02.926Z,989.44
2022-10-07T03:25:02.937Z,989.35
2022-10-07T03:26:03.068Z,989.41
2022-10-07T03:27:03.871Z,989.38
2022-10-07T03:28:03.157Z,989.38
2022-10-07T03:29:03.047Z,989.33
2022-10-07T03:30:03.025Z,989.33
2022-10-07T03:31:03.336Z,989.27
2022-10-07T03:32:03.213Z,989.38
2022-10-07T03:33:03.308Z,989.16
2022-10-07T03:34:03.426Z,989.30
2022-10-07T03:35:03.429Z,989.36
2022-10-07T03:36:03.396Z,989.41
2022-10-07T03:37:03.376Z,989.33
2022-10-07T03:38:03.526Z,989.38
2022-10-07T03:39:03.490Z,989.27
2022-10-07T03:40:03.527Z,989.30
2022-10-07T03:41:03.620Z,989.27
2022-10-07T03:42:03.487Z,989.33
2022-10-07T03:43:03.579Z,989.24
2022-10-07T03:44:03.627Z,989.33
2022-10-07T03:45:03.549Z,989.33
2022-10-07T03:46:03.765Z,989.38
2022-10-07T03:47:10.942Z,989.38
2022-10-07T03:48:03.664Z,989.33
2022-10-07T03:49:03.688Z,989.21
2022-10-07T03:50:03.829Z,989.36
2022-10-07T03:51:03.761Z,989.30
2022-10-07T03:52:03.863Z,989.22
2022-10-07T03:53:03.288Z,989.33
2022-10-07T03:54:03.456Z,989.38
2022-10-07T03:55:03.491Z,989.30
2022-10-07T03:56:03.450Z,989.27
2022-10-07T03:57:03.534Z,989.16
2022-10-07T03:58:03.577Z,989.19
2022-10-07T03:59:03.615Z,989.27
2022-10-07T04:00:03.743Z,989.16
2022-10-07T04:01:03.727Z,989.22
2022-10-07T04:02:03.768Z,989.25
2022-10-07T04:03:03.779Z,989.25
2022-10-07T04:04:03.706Z,989.08
2022-10-07T04:05:03.656Z,989.16
2022-10-07T04:06:03.766Z,989.02
2022-10-07T04:07:03.704Z,989.13
2022-10-07T04:08:03.748Z,989.05
2022-10-07T04:09:03.862Z,989.11
2022-10-07T04:10:03.923Z,989.08
2022-10-07T04:11:03.885Z,989.02
2022-10-07T04:12:02.975Z,989.05
2022-10-07T04:13:02.937Z,989.11
2022-10-07T04:14:03.019Z,989.13
2022-10-07T04:15:02.996Z,988.99
2022-10-07T04:16:03.195Z,989.02
2022-10-07T04:17:03.197Z,989.02
2022-10-07T04:18:03.252Z,988.97
2022-10-07T04:19:03.108Z,989.05
2022-10-07T04:20:03.103Z,989.11
2022-10-07T04:21:03.145Z,989.14
2022-10-07T04:22:09.132Z,988.88
2022-10-07T04:23:03.185Z,988.94
2022-10-07T04:24:03.371Z,988.94
2022-10-07T04:25:03.507Z,988.88
2022-10-07T04:26:03.497Z,988.91
2022-10-07T04:27:03.477Z,988.77
2022-10-07T04:28:04.057Z,989.02
2022-10-07T04:29:03.473Z,989.02
2022-10-07T04:30:03.575Z,988.88
2022-10-07T04:31:03.656Z,988.80
2022-10-07T04:32:03.683Z,988.88
2022-10-07T04:33:03.679Z,988.77
2022-10-07T04:34:03.697Z,988.74
2022-10-07T04:35:03.805Z,988.91
2022-10-07T04:36:02.958Z,988.83
2022-10-07T04:37:02.958Z,988.83
2022-10-07T04:38:02.973Z,988.66
2022-10-07T04:39:03.016Z,988.85
2022-10-07T04:40:03.010Z,988.71
2022-10-07T04:41:03.150Z,988.74
2022-10-07T04:42:03.041Z,988.71
2022-10-07T04:43:03.090Z,988.77
2022-10-07T04:44:03.024Z,988.71
2022-10-07T04:45:03.159Z,988.72
2022-10-07T04:46:03.222Z,988.80
2022-10-07T04:47:03.498Z,988.88
2022-10-07T04:48:03.407Z,988.77
2022-10-07T04:49:03.542Z,988.57
2022-10-07T04:50:03.497Z,988.66
2022-10-07T04:51:03.577Z,988.60
2022-10-07T04:52:03.461Z,988.66
2022-10-07T04:53:03.521Z,988.66
2022-10-07T04:54:03.090Z,988.63
2022-10-07T04:55:03.224Z,988.72
2022-10-07T04:56:02.925Z,988.69
2022-10-07T04:57:03.161Z,988.72
2022-10-07T04:58:03.092Z,988.75
2022-10-07T04:59:03.166Z,988.58
2022-10-07T05:00:03.133Z,988.69
2022-10-07T05:01:03.356Z,988.72
2022-10-07T05:02:03.389Z,988.86
2022-10-07T05:03:03.302Z,988.78
2022-10-07T05:04:03.311Z,988.61
2022-10-07T05:05:03.452Z,988.61
2022-10-07T05:06:06.333Z,988.69
2022-10-07T05:07:03.694Z,988.64
2022-10-07T05:08:03.721Z,988.64
2022-10-07T05:09:03.661Z,988.52
2022-10-07T05:10:03.658Z,988.55
2022-10-07T05:11:03.644Z,988.58
2022-10-07T05:12:03.605Z,988.47
2022-10-07T05:13:03.888Z,988.61
2022-10-07T05:14:03.784Z,988.53
2022-10-07T05:15:03.821Z,988.53
2022-10-07T05:16:03.995Z,988.64
2022-10-07T05:17:03.812Z,988.61
2022-10-07T05:18:03.769Z,988.53
2022-10-07T05:19:03.772Z,988.61
2022-10-07T05:20:03.851Z,988.61
2022-10-07T05:21:02.992Z,988.50
2022-10-07T05:22:02.967Z,988.53
2022-10-07T05:23:02.906Z,988.55
2022-10-07T05:24:03.026Z,988.50
2022-10-07T05:25:02.944Z,988.41
2022-10-07T05:26:03.062Z,988.53
2022-10-07T05:27:03.007Z,988.41
2022-10-07T05:28:03.196Z,988.39
2022-10-07T05:29:02.966Z,988.47
2022-10-07T05:30:03.106Z,988.53
2022-10-07T05:31:03.255Z,988.44
2022-10-07T05:32:05.685Z,988.50
2022-10-07T05:33:03.254Z,988.58
2022-10-07T05:34:03.295Z,988.53
2022-10-07T05:35:03.279Z,988.41
2022-10-07T05:36:03.229Z,988.39
2022-10-07T05:37:03.346Z,988.44
2022-10-07T05:38:03.230Z,988.41
2022-10-07T05:39:03.329Z,988.36
2022-10-07T05:40:03.637Z,988.44
2022-10-07T05:41:03.745Z,988.30
2022-10-07T05:42:03.765Z,988.27
2022-10-07T05:43:03.843Z,988.41
2022-10-07T05:44:03.017Z,988.30
2022-10-07T05:45:03.096Z,988.36
2022-10-07T05:46:03.223Z,988.26
2022-10-07T05:47:03.015Z,988.44
2022-10-07T05:48:03.049Z,988.39
2022-10-07T05:49:03.142Z,988.41
2022-10-07T05:50:03.108Z,988.39
2022-10-07T05:51:03.068Z,988.39
2022-10-07T05:52:03.256Z,988.27
2022-10-07T05:53:03.213Z,988.39
2022-10-07T05:54:03.434Z,988.39
2022-10-07T05:55:03.383Z,988.36
2022-10-07T05:56:03.327Z,988.33
2022-10-07T05:57:03.321Z,988.27
2022-10-07T05:58:03.303Z,988.27
2022-10-07T05:59:03.416Z,988.30
2022-10-07T06:00:03.533Z,988.27
2022-10-07T06:01:13.069Z,988.27
2022-10-07T06:02:03.603Z,988.36
2022-10-07T06:03:03.539Z,988.14
2022-10-07T06:04:03.385Z,988.27
2022-10-07T06:05:03.549Z,988.33
2022-10-07T06:06:03.491Z,988.41
2022-10-07T06:07:03.537Z,988.30
2022-10-07T06:08:03.412Z,988.27
2022-10-07T06:09:03.563Z,988.27
2022-10-07T06:10:03.673Z,988.20
2022-10-07T06:11:03.671Z,988.33
2022-10-07T06:12:03.852Z,988.14
2022-10-07T06:13:02.915Z,988.20
2022-10-07T06:14:02.972Z,988.17
2022-10-07T06:15:03.006Z,988.11
2022-10-07T06:16:03.065Z,988.33
2022-10-07T06:17:03.374Z,988.17
2022-10-07T06:18:03.132Z,988.25
2022-10-07T06:19:03.235Z,988.29
2022-10-07T06:20:03.327Z,988.08
2022-10-07T06:21:03.389Z,988.26
2022-10-07T06:22:03.486Z,988.04
2022-10-07T06:23:03.528Z,988.09
2022-10-07T06:24:03.550Z,988.20
2022-10-07T06:25:03.512Z,988.08
2022-10-07T06:26:03.572Z,988.14
2022-10-07T06:27:03.586Z,987.93
2022-10-07T06:28:03.799Z,988.18
2022-10-07T06:29:03.611Z,987.95
2022-10-07T06:30:03.664Z,987.92
2022-10-07T06:31:03.804Z,988.03
2022-10-07T06:32:03.762Z,988.14
2022-10-07T06:33:03.802Z,987.99
2022-10-07T06:34:03.880Z,988.10
2022-10-07T06:35:03.891Z,988.15
2022-10-07T06:36:04.978Z,988.12
2022-10-07T06:37:02.956Z,988.15
2022-10-07T06:38:03.060Z,988.12
2022-10-07T06:39:03.206Z,988.25
2022-10-07T06:40:03.280Z,988.22
2022-10-07T06:41:03.213Z,988.08
2022-10-07T06:42:03.857Z,988.35
2022-10-07T06:43:02.916Z,988.21
2022-10-07T06:44:02.960Z,988.34
2022-10-07T06:45:03.927Z,988.15
2022-10-07T06:46:03.126Z,988.15
2022-10-07T06:47:04.883Z,988.20
2022-10-07T06:48:03.003Z,988.25
2022-10-07T06:49:02.957Z,988.27
2022-10-07T06:50:02.902Z,988.25
2022-10-07T06:51:03.882Z,988.29
2022-10-07T06:52:02.955Z,988.24
2022-10-07T06:53:03.139Z,988.24
2022-10-07T06:54:03.144Z,988.21
2022-10-07T06:55:03.254Z,988.26
2022-10-07T06:56:03.240Z,988.12
2022-10-07T06:57:44.088Z,988.34
2022-10-07T06:58:11.741Z,988.42
2022-10-07T06:59:03.814Z,988.42
2022-10-07T07:00:03.822Z,988.47
2022-10-07T07:01:03.975Z,988.30
2022-10-07T07:02:03.949Z,988.39
2022-10-07T07:03:03.898Z,988.36
2022-10-07T07:04:03.841Z,988.44
2022-10-07T07:05:03.879Z,988.35
2022-10-07T07:06:02.957Z,988.41
2022-10-07T07:07:02.945Z,988.41
2022-10-07T07:08:03.097Z,988.55
2022-10-07T07:09:03.077Z,988.52
2022-10-07T07:10:03.152Z,988.52
2022-10-07T07:11:03.009Z,988.55
2022-10-07T07:12:03.101Z,988.60
2022-10-07T07:13:03.208Z,988.54
2022-10-07T07:14:03.147Z,988.71
2022-10-07T07:15:03.164Z,988.57
2022-10-07T07:16:02.885Z,988.63
2022-10-07T07:17:03.094Z,988.68
2022-10-07T07:18:03.195Z,988.63
2022-10-07T07:19:03.110Z,988.74
2022-10-07T07:20:03.270Z,988.71
2022-10-07T07:21:03.154Z,988.80
2022-10-07T07:22:03.279Z,988.80
2022-10-07T07:23:03.274Z,988.82
2022-10-07T07:24:03.374Z,988.88
2022-10-07T07:25:03.344Z,988.74
2022-10-07T07:26:03.446Z,988.74
2022-10-07T07:27:03.534Z,988.76
2022-10-07T07:28:03.671Z,988.76
2022-10-07T07:29:03.583Z,988.82
2022-10-07T07:30:03.590Z,988.99
2022-10-07T07:31:03.899Z,988.73
2022-10-07T07:32:03.742Z,988.73
2022-10-07T07:33:03.778Z,988.81
2022-10-07T07:34:03.853Z,988.87
2022-10-07T07:35:03.005Z,988.76
2022-10-07T07:36:03.008Z,988.81
2022-10-07T07:37:02.983Z,988.87
2022-10-07T07:38:02.956Z,988.93
2022-10-07T07:39:03.127Z,988.84
2022-10-07T07:40:03.163Z,988.81
2022-10-07T07:41:03.190Z,988.64
2022-10-07T07:42:03.155Z,988.72
2022-10-07T07:43:03.283Z,988.90
2022-10-07T07:44:03.207Z,988.90
2022-10-07T07:45:03.246Z,988.87
2022-10-07T07:46:03.381Z,988.70
2022-10-07T07:47:03.384Z,988.70
2022-10-07T07:48:03.408Z,988.89
2022-10-07T07:49:03.365Z,988.84
2022-10-07T07:50:03.298Z,988.87
2022-10-07T07:51:03.475Z,988.92
2022-10-07T07:52:03.395Z,988.86
2022-10-07T07:53:03.465Z,988.92
2022-10-07T07:54:03.496Z,988.89
2022-10-07T07:55:03.544Z,988.83
2022-10-07T07:56:03.555Z,988.86
2022-10-07T07:57:03.521Z,988.86
2022-10-07T07:58:03.936Z,988.83
2022-10-07T07:59:03.804Z,988.89
2022-10-07T08:00:03.733Z,988.72
2022-10-07T08:01:03.920Z,988.80
2022-10-07T08:02:02.871Z,988.92
2022-10-07T08:03:02.977Z,989.03
2022-10-07T08:04:03.056Z,988.72
2022-10-07T08:05:03.197Z,988.74
2022-10-07T08:06:03.215Z,988.80
2022-10-07T08:07:03.132Z,988.89
2022-10-07T08:08:03.229Z,988.86
2022-10-07T08:09:03.289Z,988.86
2022-10-07T08:10:03.769Z,988.89
2022-10-07T08:11:03.904Z,988.66
2022-10-07T08:12:03.064Z,988.77
2022-10-07T08:13:03.086Z,988.71
2022-10-07T08:14:03.193Z,988.60
2022-10-07T08:15:03.230Z,988.74
2022-10-07T08:16:03.241Z,988.85
2022-10-07T08:17:03.210Z,988.74
2022-10-07T08:18:03.416Z,988.80
2022-10-07T08:19:03.340Z,988.82
2022-10-07T08:20:03.481Z,988.74
2022-10-07T08:21:03.539Z,988.62
2022-10-07T08:22:03.558Z,988.71
2022-10-07T08:23:03.578Z,988.71
2022-10-07T08:24:03.678Z,988.71
2022-10-07T08:25:03.689Z,988.68
2022-10-07T08:26:03.808Z,988.53
2022-10-07T08:27:03.803Z,988.73
2022-10-07T08:28:03.900Z,988.68
2022-10-07T08:29:05.942Z,988.65
2022-10-07T08:30:03.881Z,988.70
2022-10-07T08:31:03.071Z,988.62
2022-10-07T08:32:03.007Z,988.62
2022-10-07T08:33:02.907Z,988.70
2022-10-07T08:34:03.001Z,988.56
2022-10-07T08:35:03.049Z,988.59
2022-10-07T08:36:03.054Z,988.58
2022-10-07T08:37:03.174Z,988.67
2022-10-07T08:38:03.196Z,988.64
2022-10-07T08:39:03.235Z,988.47
2022-10-07T08:40:03.337Z,988.55
2022-10-07T08:41:03.364Z,988.52
2022-10-07T08:42:03.291Z,988.55
2022-10-07T08:43:03.384Z,988.64
2022-10-07T08:44:08.062Z,988.50
2022-10-07T08:45:03.376Z,988.49
2022-10-07T08:46:03.662Z,988.49
2022-10-07T08:47:03.629Z,988.49
2022-10-07T08:48:03.518Z,988.58
2022-10-07T08:49:03.694Z,988.32
2022-10-07T08:50:03.721Z,988.49
2022-10-07T08:51:03.625Z,988.49
2022-10-07T08:52:03.644Z,988.40
2022-10-07T08:53:03.705Z,988.43
2022-10-07T08:54:03.845Z,988.46
2022-10-07T08:55:03.829Z,988.46
2022-10-07T08:56:03.794Z,988.49
2022-10-07T08:57:03.845Z,988.43
2022-10-07T08:58:03.894Z,988.32
2022-10-07T08:59:03.906Z,988.29
2022-10-07T09:00:02.951Z,988.46
2022-10-07T09:01:03.194Z,988.40
2022-10-07T09:02:03.050Z,988.43
2022-10-07T09:03:03.066Z,988.28
2022-10-07T09:04:03.149Z,988.37
2022-10-07T09:05:03.243Z,988.31
2022-10-07T09:06:03.440Z,988.31
2022-10-07T09:07:03.446Z,988.39
2022-10-07T09:08:03.353Z,988.23
2022-10-07T09:09:03.487Z,988.33
2022-10-07T09:10:03.567Z,988.30
2022-10-07T09:11:08.167Z,988.30
2022-10-07T09:12:03.598Z,988.25
2022-10-07T09:13:03.698Z,988.20
2022-10-07T09:14:03.648Z,988.22
2022-10-07T09:15:03.798Z,988.17
2022-10-07T09:16:03.936Z,988.16
2022-10-07T09:17:03.088Z,988.13
2022-10-07T09:18:03.034Z,988.16
2022-10-07T09:19:03.178Z,988.05
2022-10-07T09:20:03.176Z,988.04
2022-10-07T09:21:03.218Z,988.07
2022-10-07T09:22:03.318Z,988.19
2022-10-07T09:23:03.463Z,988.16
2022-10-07T09:24:03.510Z,988.10
2022-10-07T09:25:11.247Z,988.13
2022-10-07T09:26:03.656Z,988.13
2022-10-07T09:27:03.821Z,988.07
2022-10-07T09:28:03.911Z,988.10
2022-10-07T09:29:03.861Z,987.95
2022-10-07T09:30:03.913Z,988.01
2022-10-07T09:31:03.130Z,987.87
2022-10-07T09:32:02.906Z,987.98
2022-10-07T09:33:02.958Z,988.03
2022-10-07T09:34:03.159Z,988.03
2022-10-07T09:35:03.307Z,987.94
2022-10-07T09:36:03.288Z,987.91
2022-10-07T09:37:03.329Z,987.94
2022-10-07T09:38:03.279Z,987.97
2022-10-07T09:39:03.380Z,987.91
2022-10-07T09:40:03.415Z,988.05
2022-10-07T09:41:03.481Z,988.05
2022-10-07T09:42:03.487Z,988.08
2022-10-07T09:43:03.378Z,988.11
2022-10-07T09:44:03.415Z,987.99
2022-10-07T09:45:03.410Z,988.02
2022-10-07T09:46:03.549Z,988.04
2022-10-07T09:47:03.881Z,987.96
2022-10-07T09:48:02.884Z,988.01
2022-10-07T09:49:03.020Z,988.10
2022-10-07T09:50:03.199Z,988.04
2022-10-07T09:51:03.192Z,988.04
2022-10-07T09:52:03.218Z,987.92
2022-10-07T09:53:03.164Z,987.92
2022-10-07T09:54:03.320Z,987.81
2022-10-07T09:55:03.343Z,987.73
2022-10-07T09:56:03.279Z,987.78
2022-10-07T09:57:03.324Z,987.78
2022-10-07T09:58:03.448Z,987.72
2022-10-07T09:59:03.425Z,987.75
2022-10-07T10:00:03.618Z,987.72
2022-10-07T10:01:03.655Z,987.63
2022-10-07T10:02:03.703Z,987.78
2022-10-07T10:03:06.393Z,987.54
2022-10-07T10:04:03.768Z,987.69
2022-10-07T10:05:03.932Z,987.74
2022-10-07T10:06:03.940Z,987.80
2022-10-07T10:07:02.967Z,987.71
2022-10-07T10:08:03.041Z,987.77
2022-10-07T10:09:03.142Z,987.71
2022-10-07T10:10:03.253Z,987.71
2022-10-07T10:11:03.281Z,987.65
2022-10-07T10:12:03.251Z,987.76
2022-10-07T10:13:03.408Z,987.68
2022-10-07T10:14:03.394Z,987.56
2022-10-07T10:15:03.493Z,987.56
2022-10-07T10:16:03.641Z,987.70
2022-10-07T10:17:03.500Z,987.47
2022-10-07T10:18:03.606Z,987.70
2022-10-07T10:19:03.531Z,987.56
2022-10-07T10:20:03.642Z,987.61
2022-10-07T10:21:03.739Z,987.58
2022-10-07T10:22:03.814Z,987.67
2022-10-07T10:23:03.789Z,987.49
2022-10-07T10:24:03.865Z,987.58
2022-10-07T10:25:03.802Z,987.55
2022-10-07T10:26:03.037Z,987.52
2022-10-07T10:27:03.056Z,987.46
2022-10-07T10:28:03.096Z,987.43
2022-10-07T10:29:02.913Z,987.28
2022-10-07T10:30:03.023Z,987.34
2022-10-07T10:31:03.256Z,987.48
2022-10-07T10:32:03.135Z,987.54
2022-10-07T10:33:03.195Z,987.40
2022-10-07T10:34:03.206Z,987.37
2022-10-07T10:35:03.369Z,987.54
2022-10-07T10:36:03.441Z,987.42
2022-10-07T10:37:03.446Z,987.51
2022-10-07T10:38:03.521Z,987.45
2022-10-07T10:39:03.586Z,987.45
2022-10-07T10:40:03.706Z,987.57
2022-10-07T10:41:03.674Z,987.62
2022-10-07T10:42:03.636Z,987.45
2022-10-07T10:43:03.694Z,987.56
2022-10-07T10:44:03.862Z,987.39
2022-10-07T10:45:02.991Z,987.42
2022-10-07T10:46:04.014Z,987.50
2022-10-07T10:47:02.928Z,987.44
2022-10-07T10:48:02.964Z,987.47
2022-10-07T10:49:03.128Z,987.41
2022-10-07T10:50:03.101Z,987.53
2022-10-07T10:51:03.261Z,987.27
2022-10-07T10:52:03.309Z,987.35
2022-10-07T10:53:03.301Z,987.41
2022-10-07T10:54:03.276Z,987.47
2022-10-07T10:55:03.308Z,987.55
2022-10-07T10:56:03.458Z,987.50
2022-10-07T10:57:03.529Z,987.55
2022-10-07T10:58:03.528Z,987.35
2022-10-07T10:59:03.491Z,987.44
2022-10-07T11:00:03.565Z,987.29
2022-10-07T11:01:03.521Z,987.26
2022-10-07T11:02:03.731Z,987.35
2022-10-07T11:03:03.844Z,987.29
2022-10-07T11:04:03.627Z,987.32
2022-10-07T11:05:03.796Z,987.38
2022-10-07T11:06:03.826Z,987.47
2022-10-07T11:07:02.940Z,987.44
2022-10-07T11:08:03.063Z,987.32
2022-10-07T11:09:03.193Z,987.26
2022-10-07T11:10:03.283Z,987.20
2022-10-07T11:11:03.157Z,987.32
2022-10-07T11:12:03.317Z,987.23
2022-10-07T11:13:03.399Z,987.29
2022-10-07T11:14:03.380Z,987.09
2022-10-07T11:15:03.405Z,987.23
2022-10-07T11:16:03.651Z,987.09
2022-10-07T11:17:03.491Z,987.17
2022-10-07T11:18:03.549Z,987.06
2022-10-07T11:19:03.563Z,987.09
2022-10-07T11:20:03.528Z,987.20
2022-10-07T11:21:04.218Z,987.14
2022-10-07T11:22:03.706Z,987.09
2022-10-07T11:23:03.687Z,987.23
2022-10-07T11:24:03.821Z,987.14
2022-10-07T11:25:03.727Z,987.20
2022-10-07T11:26:03.780Z,987.08
2022-10-07T11:27:03.855Z,987.11
2022-10-07T11:28:03.855Z,987.05
2022-10-07T11:29:02.980Z,987.08
2022-10-07T11:30:03.045Z,987.23
2022-10-07T11:31:03.213Z,987.05
2022-10-07T11:32:03.010Z,987.08
2022-10-07T11:33:03.090Z,987.11
2022-10-07T11:34:03.051Z,987.02
2022-10-07T11:35:03.104Z,986.99
2022-10-07T11:36:03.119Z,986.93
2022-10-07T11:37:03.156Z,986.85
2022-10-07T11:38:03.241Z,986.90
2022-10-07T11:39:03.236Z,986.76
2022-10-07T11:40:03.308Z,986.82
2022-10-07T11:41:03.157Z,986.79
2022-10-07T11:42:03.288Z,986.79
2022-10-07T11:43:03.258Z,986.87
2022-10-07T11:44:03.269Z,986.76
2022-10-07T11:45:03.463Z,986.67
2022-10-07T11:46:11.260Z,986.87
2022-10-07T11:47:03.710Z,986.61
2022-10-07T11:48:03.603Z,986.61
2022-10-07T11:49:03.610Z,986.64
2022-10-07T11:50:03.648Z,986.56
2022-10-07T11:51:03.651Z,986.61
2022-10-07T11:52:03.702Z,986.56
2022-10-07T11:53:03.798Z,986.50
2022-10-07T11:54:03.801Z,986.47
2022-10-07T11:55:03.754Z,986.47
2022-10-07T11:56:03.881Z,986.38
2022-10-07T11:57:03.927Z,986.41
2022-10-07T11:58:03.868Z,986.35
2022-10-07T11:59:02.866Z,986.44
2022-10-07T12:00:03.088Z,986.26
2022-10-07T12:01:03.100Z,986.26
2022-10-07T12:02:03.245Z,986.23
2022-10-07T12:03:03.239Z,986.29
2022-10-07T12:04:03.263Z,986.20
2022-10-07T12:05:03.296Z,986.29
2022-10-07T12:06:03.303Z,986.40
2022-10-07T12:07:03.407Z,986.20
2022-10-07T12:08:03.293Z,986.11
2022-10-07T12:09:03.303Z,986.14
2022-10-07T12:10:03.412Z,986.14
2022-10-07T12:11:03.433Z,986.17
2022-10-07T12:12:03.464Z,986.11
2022-10-07T12:13:03.506Z,986.14
2022-10-07T12:14:03.477Z,986.17
2022-10-07T12:15:03.612Z,986.20
2022-10-07T12:16:03.732Z,986.08
2022-10-07T12:17:03.781Z,986.02
2022-10-07T12:18:03.869Z,985.91
2022-10-07T12:19:02.925Z,985.93
2022-10-07T12:20:03.069Z,986.08
2022-10-07T12:21:03.082Z,986.05
2022-10-07T12:22:03.201Z,985.88
2022-10-07T12:23:03.300Z,986.02
2022-10-07T12:24:03.210Z,985.88
2022-10-07T12:25:09.061Z,985.79
2022-10-07T12:26:03.261Z,985.96
2022-10-07T12:27:03.232Z,985.85
2022-10-07T12:28:03.440Z,985.99